createdAt,value
2022-11-20T00:00:28.496Z,991.36
2022-11-20T00:01:28.448Z,991.34
2022-11-20T00:02:28.512Z,991.37
2022-11-20T00:03:28.445Z,991.34
2022-11-20T00:04:28.432Z,991.34
2022-11-20T00:05:28.431Z,991.37
2022-11-20T00:06:28.562Z,991.34
2022-11-20T00:07:28.470Z,991.26
2022-11-20T00:08:28.425Z,991.25
2022-11-20T00:09:28.434Z,991.31
2022-11-20T00:10:28.421Z,991.30
2022-11-20T00:11:28.406Z,991.32
2022-11-20T00:12:28.957Z,991.22
2022-11-20T00:13:28.391Z,991.32
2022-11-20T00:14:28.400Z,991.34
2022-11-20T00:15:28.365Z,991.23
2022-11-20T00:16:28.383Z,991.35
2022-11-20T00:17:28.374Z,991.22
2022-11-20T00:18:28.376Z,991.29
2022-11-20T00:19:28.356Z,991.27
2022-11-20T00:20:28.354Z,991.25
2022-11-20T00:21:28.332Z,991.26
2022-11-20T00:22:28.341Z,991.14
2022-11-20T00:23:28.326Z,991.28
2022-11-20T00:24:28.319Z,991.25
2022-11-20T00:25:28.317Z,991.24
2022-11-20T00:26:28.330Z,991.20
2022-11-20T00:27:28.292Z,991.23
2022-11-20T00:28:28.314Z,991.16
2022-11-20T00:29:28.271Z,991.21
2022-11-20T00:30:28.279Z,991.21
2022-11-20T00:31:28.274Z,991.16
2022-11-20T00:32:28.312Z,991.19
2022-11-20T00:33:28.265Z,991.16
2022-11-20T00:34:28.289Z,991.17
2022-11-20T00:35:28.234Z,991.20
2022-11-20T00:36:28.236Z,991.25
2022-11-20T00:37:28.347Z,991.21
2022-11-20T00:38:28.273Z,991.25
2022-11-20T00:39:28.216Z,991.16
2022-11-20T00:40:28.236Z,991.24
2022-11-20T00:41:28.203Z,991.28
2022-11-20T00:42:28.220Z,991.25
2022-11-20T00:43:28.202Z,991.28
2022-11-20T00:44:28.246Z,991.28
2022-11-20T00:45:28.184Z,991.26
2022-11-20T00:46:28.228Z,991.27
2022-11-20T00:47:28.162Z,991.22
2022-11-20T00:48:28.196Z,991.21
2022-11-20T00:49:28.160Z,991.19
2022-11-20T00:50:28.159Z,991.23
2022-11-20T00:51:28.167Z,991.22
2022-11-20T00:52:28.159Z,991.18
2022-11-20T00:53:28.150Z,991.13
2022-11-20T00:54:28.306Z,991.20
2022-11-20T00:55:28.135Z,991.21
2022-11-20T00:56:28.145Z,991.15
2022-11-20T00:57:28.157Z,991.20
2022-11-20T00:58:28.124Z,991.15
2022-11-20T00:59:28.107Z,991.15
2022-11-20T01:00:28.116Z,991.18
2022-11-20T01:01:28.929Z,991.10
2022-11-20T01:02:28.094Z,991.11
2022-11-20T01:03:28.091Z,991.12
2022-11-20T01:04:28.078Z,991.08
2022-11-20T01:05:28.087Z,991.05
2022-11-20T01:06:29.477Z,991.02
2022-11-20T01:07:28.803Z,990.97
2022-11-20T01:08:28.116Z,990.92
2022-11-20T01:09:28.053Z,990.96
2022-11-20T01:10:28.071Z,990.97
2022-11-20T01:11:28.057Z,990.99
2022-11-20T01:12:28.059Z,990.97
2022-11-20T01:13:28.033Z,991.00
2022-11-20T01:14:28.043Z,990.95
2022-11-20T01:15:28.016Z,990.99
2022-11-20T01:16:28.595Z,990.98
2022-11-20T01:17:49.010Z,990.94
2022-11-20T01:18:28.010Z,990.94
2022-11-20T01:19:27.999Z,990.96
2022-11-20T01:20:30.584Z,990.89
2022-11-20T01:21:27.988Z,990.97
2022-11-20T01:22:28.915Z,990.97
2022-11-20T01:23:28.167Z,990.99
2022-11-20T01:24:27.973Z,991.01
2022-11-20T01:25:27.967Z,991.06
2022-11-20T01:26:27.986Z,991.06
2022-11-20T01:27:27.979Z,991.05
2022-11-20T01:28:27.983Z,990.97
2022-11-20T01:29:28.689Z,991.00
2022-11-20T01:30:27.971Z,990.95
2022-11-20T01:31:27.940Z,990.94
2022-11-20T01:32:27.924Z,990.91
2022-11-20T01:33:27.927Z,990.97
2022-11-20T01:34:27.942Z,990.92
2022-11-20T01:35:27.903Z,990.89
2022-11-20T01:36:27.905Z,990.90
2022-11-20T01:37:27.908Z,990.86
2022-11-20T01:38:27.897Z,990.91
2022-11-20T01:39:27.970Z,990.87
2022-11-20T01:40:27.965Z,990.86
2022-11-20T01:41:27.887Z,990.84
2022-11-20T01:42:27.885Z,990.77
2022-11-20T01:43:27.884Z,990.83
2022-11-20T01:44:27.871Z,990.83
2022-11-20T01:45:27.968Z,990.85
2022-11-20T01:46:28.037Z,990.81
2022-11-20T01:47:27.859Z,990.77
2022-11-20T01:48:27.830Z,990.75
2022-11-20T01:49:27.841Z,990.73
2022-11-20T01:50:28.287Z,990.71
2022-11-20T01:51:27.819Z,990.73
2022-11-20T01:52:27.817Z,990.72
2022-11-20T01:53:27.834Z,990.81
2022-11-20T01:54:27.796Z,990.70
2022-11-20T01:55:28.250Z,990.73
2022-11-20T01:56:27.809Z,990.69
2022-11-20T01:57:27.804Z,990.75
2022-11-20T01:58:27.776Z,990.81
2022-11-20T01:59:27.794Z,990.80
2022-11-20T02:00:27.831Z,990.76
2022-11-20T02:01:27.962Z,990.77
2022-11-20T02:02:27.767Z,990.81
2022-11-20T02:03:27.760Z,990.87
2022-11-20T02:04:27.819Z,990.84
2022-11-20T02:05:27.760Z,990.88
2022-11-20T02:06:27.743Z,990.89
2022-11-20T02:07:27.822Z,990.89
2022-11-20T02:08:27.723Z,990.86
2022-11-20T02:09:27.733Z,990.85
2022-11-20T02:10:27.728Z,990.84
2022-11-20T02:11:27.717Z,990.84
2022-11-20T02:12:27.729Z,990.87
2022-11-20T02:13:27.719Z,990.91
2022-11-20T02:14:28.197Z,990.86
2022-11-20T02:15:30.420Z,990.85
2022-11-20T02:16:27.684Z,990.85
2022-11-20T02:17:27.688Z,990.81
2022-11-20T02:18:27.708Z,990.81
2022-11-20T02:19:27.676Z,990.77
2022-11-20T02:20:27.673Z,990.80
2022-11-20T02:21:27.674Z,990.83
2022-11-20T02:22:27.653Z,990.87
2022-11-20T02:23:27.667Z,990.81
2022-11-20T02:24:27.659Z,990.78
2022-11-20T02:25:27.646Z,990.79
2022-11-20T02:26:27.640Z,990.77
2022-11-20T02:27:27.650Z,990.72
2022-11-20T02:28:27.624Z,990.72
2022-11-20T02:29:27.629Z,990.72
2022-11-20T02:30:27.622Z,990.71
2022-11-20T02:31:29.951Z,990.64
2022-11-20T02:32:27.610Z,990.65
2022-11-20T02:33:27.622Z,990.63
2022-11-20T02:34:28.133Z,990.61
2022-11-20T02:35:27.601Z,990.58
2022-11-20T02:36:27.575Z,990.58
2022-11-20T02:37:27.589Z,990.60
2022-11-20T02:38:27.578Z,990.60
2022-11-20T02:39:27.633Z,990.55
2022-11-20T02:40:27.598Z,990.52
2022-11-20T02:41:27.590Z,990.54
2022-11-20T02:42:27.536Z,990.56
2022-11-20T02:43:27.546Z,990.55
2022-11-20T02:44:27.537Z,990.59
2022-11-20T02:45:27.552Z,990.55
2022-11-20T02:46:27.524Z,990.57
2022-11-20T02:47:27.548Z,990.57
2022-11-20T02:48:30.237Z,990.61
2022-11-20T02:49:28.512Z,990.56
2022-11-20T02:50:27.509Z,990.56
2022-11-20T02:51:27.506Z,990.57
2022-11-20T02:52:27.502Z,990.50
2022-11-20T02:53:27.527Z,990.54
2022-11-20T02:54:27.481Z,990.45
2022-11-20T02:55:27.496Z,990.44
2022-11-20T02:56:27.462Z,990.53
2022-11-20T02:57:27.471Z,990.49
2022-11-20T02:58:29.872Z,990.50
2022-11-20T02:59:27.481Z,990.52
2022-11-20T03:00:27.453Z,990.52
2022-11-20T03:01:27.565Z,990.44
2022-11-20T03:02:27.451Z,990.49
2022-11-20T03:03:27.445Z,990.60
2022-11-20T03:04:27.437Z,990.57
2022-11-20T03:05:27.521Z,990.57
2022-11-20T03:06:27.419Z,990.56
2022-11-20T03:07:27.473Z,990.55
2022-11-20T03:08:27.414Z,990.60
2022-11-20T03:09:27.417Z,990.59
2022-11-20T03:10:27.417Z,990.66
2022-11-20T03:11:27.404Z,990.67
2022-11-20T03:12:27.430Z,990.66
2022-11-20T03:13:27.403Z,990.63
2022-11-20T03:14:27.385Z,990.53
2022-11-20T03:15:27.383Z,990.56
2022-11-20T03:16:27.379Z,990.56
2022-11-20T03:17:27.383Z,990.60
2022-11-20T03:18:27.383Z,990.49
2022-11-20T03:19:27.350Z,990.56
2022-11-20T03:20:27.376Z,990.47
2022-11-20T03:21:27.364Z,990.48
2022-11-20T03:22:27.349Z,990.51
2022-11-20T03:23:27.363Z,990.48
2022-11-20T03:24:27.340Z,990.46
2022-11-20T03:25:27.326Z,990.53
2022-11-20T03:26:27.343Z,990.51
2022-11-20T03:27:27.327Z,990.46
2022-11-20T03:28:28.055Z,990.48
2022-11-20T03:29:27.358Z,990.47
2022-11-20T03:30:30.542Z,990.46
2022-11-20T03:31:27.296Z,990.49
2022-11-20T03:32:27.305Z,990.51
2022-11-20T03:33:27.291Z,990.54
2022-11-20T03:34:27.293Z,990.53
2022-11-20T03:35:27.301Z,990.52
2022-11-20T03:36:27.268Z,990.59
2022-11-20T03:37:27.260Z,990.50
2022-11-20T03:38:27.276Z,990.49
2022-11-20T03:39:27.244Z,990.50
2022-11-20T03:40:28.111Z,990.49
2022-11-20T03:41:27.250Z,990.42
2022-11-20T03:42:27.258Z,990.45
2022-11-20T03:43:27.240Z,990.42
2022-11-20T03:44:27.230Z,990.38
2022-11-20T03:45:27.215Z,990.41
2022-11-20T03:46:27.240Z,990.39
2022-11-20T03:47:27.233Z,990.44
2022-11-20T03:48:27.207Z,990.44
2022-11-20T03:49:27.937Z,990.39
2022-11-20T03:50:27.232Z,990.37
2022-11-20T03:51:27.192Z,990.33
2022-11-20T03:52:27.208Z,990.32
2022-11-20T03:53:27.190Z,990.19
2022-11-20T03:54:27.177Z,990.20
2022-11-20T03:55:27.665Z,990.21
2022-11-20T03:56:27.172Z,990.19
2022-11-20T03:57:27.173Z,990.12
2022-11-20T03:58:27.173Z,990.14
2022-11-20T03:59:27.140Z,990.10
2022-11-20T04:00:29.028Z,990.08
2022-11-20T04:01:28.162Z,990.01
2022-11-20T04:02:27.133Z,990.02
2022-11-20T04:03:27.153Z,989.98
2022-11-20T04:04:27.149Z,990.00
2022-11-20T04:05:27.116Z,990.05
2022-11-20T04:06:27.123Z,990.03
2022-11-20T04:07:27.391Z,990.05
2022-11-20T04:08:27.098Z,990.14
2022-11-20T04:09:27.086Z,990.15
2022-11-20T04:10:27.105Z,990.14
2022-11-20T04:11:27.095Z,990.09
2022-11-20T04:12:28.121Z,990.14
2022-11-20T04:13:27.128Z,990.13
2022-11-20T04:14:27.099Z,990.14
2022-11-20T04:15:27.061Z,990.19
2022-11-20T04:16:27.048Z,990.09
2022-11-20T04:17:27.048Z,990.13
2022-11-20T04:18:27.049Z,990.08
2022-11-20T04:19:27.048Z,990.08
2022-11-20T04:20:27.049Z,990.07
2022-11-20T04:21:27.077Z,990.09
2022-11-20T04:22:27.021Z,990.08
2022-11-20T04:23:28.804Z,990.07
2022-11-20T04:24:27.019Z,990.12
2022-11-20T04:25:26.997Z,990.13
2022-11-20T04:26:27.004Z,990.16
2022-11-20T04:27:27.350Z,990.14
2022-11-20T04:28:26.988Z,990.21
2022-11-20T04:29:26.977Z,990.22
2022-11-20T04:30:26.974Z,990.15
2022-11-20T04:31:26.969Z,990.14
2022-11-20T04:32:26.959Z,990.16
2022-11-20T04:33:28.989Z,990.16
2022-11-20T04:34:27.954Z,990.20
2022-11-20T04:35:26.938Z,990.22
2022-11-20T04:36:26.920Z,990.17
2022-11-20T04:37:27.091Z,990.20
2022-11-20T04:38:26.922Z,990.16
2022-11-20T04:39:26.929Z,990.16
2022-11-20T04:40:26.918Z,990.10
2022-11-20T04:41:26.917Z,990.14
2022-11-20T04:42:26.894Z,990.14
2022-11-20T04:43:26.906Z,990.16
2022-11-20T04:44:26.868Z,990.19
2022-11-20T04:45:26.885Z,990.13
2022-11-20T04:46:26.860Z,990.09
2022-11-20T04:47:26.872Z,990.07
2022-11-20T04:48:26.859Z,990.02
2022-11-20T04:49:26.904Z,990.03
2022-11-20T04:50:26.862Z,990.03
2022-11-20T04:51:27.420Z,990.09
2022-11-20T04:52:26.941Z,990.07
2022-11-20T04:53:26.901Z,990.04
2022-11-20T04:54:26.815Z,990.05
2022-11-20T04:55:26.811Z,990.09
2022-11-20T04:56:26.791Z,990.12
2022-11-20T04:57:26.812Z,990.09
2022-11-20T04:58:26.796Z,990.03
2022-11-20T04:59:26.797Z,990.05
2022-11-20T05:00:26.778Z,990.02
2022-11-20T05:01:26.923Z,990.00
2022-11-20T05:02:26.792Z,989.97
2022-11-20T05:03:26.751Z,989.96
2022-11-20T05:04:26.738Z,989.91
2022-11-20T05:05:26.755Z,989.88
2022-11-20T05:06:26.749Z,989.91
2022-11-20T05:07:26.785Z,989.88
2022-11-20T05:08:26.718Z,989.89
2022-11-20T05:09:26.727Z,989.89
2022-11-20T05:10:26.722Z,989.83
2022-11-20T05:11:26.721Z,989.87
2022-11-20T05:12:26.707Z,989.84
2022-11-20T05:13:26.689Z,989.76
2022-11-20T05:14:26.701Z,989.74
2022-11-20T05:15:26.673Z,989.76
2022-11-20T05:16:26.661Z,989.79
2022-11-20T05:17:26.674Z,989.89
2022-11-20T05:18:26.650Z,989.91
2022-11-20T05:19:26.661Z,989.90
2022-11-20T05:20:26.649Z,989.87
2022-11-20T05:21:27.027Z,989.90
2022-11-20T05:22:26.635Z,989.82
2022-11-20T05:23:26.625Z,989.90
2022-11-20T05:24:26.612Z,989.89
2022-11-20T05:25:26.643Z,989.91
2022-11-20T05:26:26.619Z,989.88
2022-11-20T05:27:26.614Z,989.80
2022-11-20T05:28:26.591Z,989.81
2022-11-20T05:29:26.591Z,989.77
2022-11-20T05:30:26.580Z,989.81
2022-11-20T05:31:27.986Z,989.84
2022-11-20T05:32:26.571Z,989.84
2022-11-20T05:33:26.570Z,989.83
2022-11-20T05:34:26.558Z,989.81
2022-11-20T05:35:26.565Z,989.83
2022-11-20T05:36:26.540Z,989.80
2022-11-20T05:37:26.534Z,989.86
2022-11-20T05:38:26.529Z,989.83
2022-11-20T05:39:26.707Z,989.76
2022-11-20T05:40:26.516Z,989.82
2022-11-20T05:41:26.513Z,989.80
2022-11-20T05:42:26.500Z,989.85
2022-11-20T05:43:26.559Z,989.88
2022-11-20T05:44:26.474Z,989.91
2022-11-20T05:45:26.502Z,989.88
2022-11-20T05:46:29.103Z,989.94
2022-11-20T05:47:26.479Z,989.95
2022-11-20T05:48:26.455Z,990.05
2022-11-20T05:49:26.459Z,989.97
2022-11-20T05:50:26.431Z,990.00
2022-11-20T05:51:26.460Z,989.98
2022-11-20T05:52:26.430Z,989.94
2022-11-20T05:53:27.794Z,989.93
2022-11-20T05:54:26.417Z,989.90
2022-11-20T05:55:26.413Z,989.93
2022-11-20T05:56:26.396Z,989.95
2022-11-20T05:57:26.418Z,989.87
2022-11-20T05:58:27.323Z,989.90
2022-11-20T05:59:26.411Z,989.87
2022-11-20T06:00:26.390Z,989.81
2022-11-20T06:01:26.399Z,989.89
2022-11-20T06:02:26.402Z,989.89
2022-11-20T06:03:26.760Z,989.88
2022-11-20T06:04:26.353Z,989.93
2022-11-20T06:05:26.373Z,989.86
2022-11-20T06:06:26.363Z,989.94
2022-11-20T06:07:26.431Z,989.84
2022-11-20T06:08:26.358Z,989.87
2022-11-20T06:09:26.333Z,989.84
2022-11-20T06:10:26.336Z,989.85
2022-11-20T06:11:26.342Z,989.79
2022-11-20T06:12:26.323Z,989.77
2022-11-20T06:13:26.306Z,989.79
2022-11-20T06:14:26.301Z,989.81
2022-11-20T06:15:26.296Z,989.77
2022-11-20T06:16:26.316Z,989.76
2022-11-20T06:17:26.298Z,989.79
2022-11-20T06:18:26.266Z,989.73
2022-11-20T06:19:26.285Z,989.86
2022-11-20T06:20:26.269Z,989.83
2022-11-20T06:21:26.249Z,989.84
2022-11-20T06:22:26.265Z,989.86
2022-11-20T06:23:26.243Z,989.85
2022-11-20T06:24:26.227Z,989.87
2022-11-20T06:25:26.243Z,989.83
2022-11-20T06:26:26.211Z,989.90
2022-11-20T06:27:26.232Z,989.84
2022-11-20T06:28:26.215Z,989.87
2022-11-20T06:29:31.322Z,989.83
2022-11-20T06:30:27.203Z,989.87
2022-11-20T06:31:26.825Z,989.84
2022-11-20T06:32:26.169Z,989.79
2022-11-20T06:33:26.190Z,989.85
2022-11-20T06:34:26.157Z,989.76
2022-11-20T06:35:26.225Z,989.73
2022-11-20T06:36:26.187Z,989.70
2022-11-20T06:37:26.167Z,989.68
2022-11-20T06:38:26.142Z,989.69
2022-11-20T06:39:26.149Z,989.76
2022-11-20T06:40:26.131Z,989.73
2022-11-20T06:41:26.261Z,989.76
2022-11-20T06:42:26.122Z,989.74
2022-11-20T06:43:26.111Z,989.77
2022-11-20T06:44:26.168Z,989.76
2022-11-20T06:45:26.112Z,989.77
2022-11-20T06:46:26.103Z,989.78
2022-11-20T06:47:26.107Z,989.79
2022-11-20T06:48:26.087Z,989.86
2022-11-20T06:49:26.074Z,989.86
2022-11-20T06:50:26.072Z,989.84
2022-11-20T06:51:26.067Z,989.81
2022-11-20T06:52:26.051Z,989.80
2022-11-20T06:53:26.075Z,989.79
2022-11-20T06:54:26.036Z,989.77
2022-11-20T06:55:26.058Z,989.75
2022-11-20T06:56:26.049Z,989.73
2022-11-20T06:57:26.028Z,989.70
2022-11-20T06:58:26.015Z,989.76
2022-11-20T06:59:26.024Z,989.77
2022-11-20T07:00:26.014Z,989.74
2022-11-20T07:01:26.049Z,989.69
2022-11-20T07:02:26.002Z,989.70
2022-11-20T07:03:26.001Z,989.67
2022-11-20T07:04:26.258Z,989.69
2022-11-20T07:05:26.033Z,989.65
2022-11-20T07:06:25.968Z,989.67
2022-11-20T07:07:26.024Z,989.69
2022-11-20T07:08:25.968Z,989.68
2022-11-20T07:09:26.153Z,989.68
2022-11-20T07:10:25.949Z,989.64
2022-11-20T07:11:25.943Z,989.66
2022-11-20T07:12:25.939Z,989.67
2022-11-20T07:13:25.936Z,989.68
2022-11-20T07:14:25.928Z,989.72
2022-11-20T07:15:26.089Z,989.75
2022-11-20T07:16:25.895Z,989.76
2022-11-20T07:17:25.944Z,989.66
2022-11-20T07:18:25.997Z,989.82
2022-11-20T07:19:26.090Z,989.80
2022-11-20T07:20:25.892Z,989.74
2022-11-20T07:21:25.877Z,989.66
2022-11-20T07:22:25.887Z,989.73
2022-11-20T07:23:25.865Z,989.72
2022-11-20T07:24:25.863Z,989.70
2022-11-20T07:25:25.872Z,989.72
2022-11-20T07:26:25.881Z,989.79
2022-11-20T07:27:27.010Z,989.73
2022-11-20T07:28:25.875Z,989.79
2022-11-20T07:29:25.834Z,989.76
2022-11-20T07:30:25.836Z,989.74
2022-11-20T07:31:26.034Z,989.78
2022-11-20T07:32:25.826Z,989.72
2022-11-20T07:33:25.826Z,989.79
2022-11-20T07:34:25.814Z,989.79
2022-11-20T07:35:25.787Z,989.88
2022-11-20T07:36:25.811Z,989.81
2022-11-20T07:37:25.798Z,989.85
2022-11-20T07:38:25.783Z,989.81
2022-11-20T07:39:25.784Z,989.78
2022-11-20T07:40:25.751Z,989.82
2022-11-20T07:41:25.823Z,989.81
2022-11-20T07:42:25.757Z,989.77
2022-11-20T07:43:25.744Z,989.79
2022-11-20T07:44:25.763Z,989.77
2022-11-20T07:45:25.751Z,989.85
2022-11-20T07:46:25.721Z,989.79
2022-11-20T07:47:26.220Z,989.86
2022-11-20T07:48:25.719Z,989.82
2022-11-20T07:49:25.731Z,989.84
2022-11-20T07:50:26.403Z,989.81
2022-11-20T07:51:25.722Z,989.86
2022-11-20T07:52:25.692Z,989.86
2022-11-20T07:53:25.714Z,989.90
2022-11-20T07:54:25.675Z,989.87
2022-11-20T07:55:25.687Z,989.90
2022-11-20T07:56:26.237Z,989.84
2022-11-20T07:57:28.493Z,989.93
2022-11-20T07:58:25.680Z,989.89
2022-11-20T07:59:25.680Z,989.93
2022-11-20T08:00:25.738Z,989.95
2022-11-20T08:01:25.774Z,989.95
2022-11-20T08:02:25.654Z,989.95
2022-11-20T08:03:25.881Z,989.95
2022-11-20T08:04:25.619Z,989.90
2022-11-20T08:05:25.647Z,989.91
2022-11-20T08:06:25.608Z,989.96
2022-11-20T08:07:25.733Z,989.97
2022-11-20T08:08:25.616Z,989.96
2022-11-20T08:09:25.603Z,989.97
2022-11-20T08:10:25.725Z,990.03
2022-11-20T08:11:25.667Z,990.02
2022-11-20T08:12:25.733Z,990.04
2022-11-20T08:13:26.222Z,990.05
2022-11-20T08:14:25.568Z,990.02
2022-11-20T08:15:25.574Z,990.00
2022-11-20T08:16:25.570Z,990.08
2022-11-20T08:17:25.607Z,990.03
2022-11-20T08:18:33.259Z,989.99
2022-11-20T08:19:27.087Z,990.01
2022-11-20T08:20:25.567Z,989.97
2022-11-20T08:21:25.543Z,989.91
2022-11-20T08:22:25.538Z,989.93
2022-11-20T08:23:26.005Z,989.83
2022-11-20T08:24:25.511Z,989.88
2022-11-20T08:25:25.539Z,989.85
2022-11-20T08:26:25.498Z,989.88
2022-11-20T08:27:25.508Z,989.85
2022-11-20T08:28:25.601Z,989.90
2022-11-20T08:29:25.496Z,989.96
2022-11-20T08:30:25.504Z,989.94
2022-11-20T08:31:25.503Z,990.04
2022-11-20T08:32:25.469Z,989.94
2022-11-20T08:33:25.483Z,990.00
2022-11-20T08:34:25.484Z,990.00
2022-11-20T08:35:25.510Z,990.01
2022-11-20T08:36:25.705Z,989.94
2022-11-20T08:37:25.502Z,989.95
2022-11-20T08:38:25.449Z,989.95
2022-11-20T08:39:25.465Z,989.94
2022-11-20T08:40:25.423Z,990.03
2022-11-20T08:41:25.435Z,989.94
2022-11-20T08:42:25.414Z,989.93
2022-11-20T08:43:25.411Z,989.90
2022-11-20T08:44:25.526Z,989.89
2022-11-20T08:45:29.620Z,989.92
2022-11-20T08:46:26.417Z,989.84
2022-11-20T08:47:25.429Z,989.88
2022-11-20T08:48:25.417Z,989.92
2022-11-20T08:49:25.390Z,989.90
2022-11-20T08:50:25.388Z,989.93
2022-11-20T08:51:25.644Z,989.93
2022-11-20T08:52:25.351Z,989.92
2022-11-20T08:53:25.367Z,989.91
2022-11-20T08:54:25.368Z,989.93
2022-11-20T08:55:25.346Z,989.93
2022-11-20T08:56:25.340Z,989.96
2022-11-20T08:57:25.373Z,989.98
2022-11-20T08:58:25.330Z,990.00
2022-11-20T08:59:50.958Z,990.04
2022-11-20T09:00:26.314Z,990.07
2022-11-20T09:01:25.479Z,989.99
2022-11-20T09:02:25.304Z,990.01
2022-11-20T09:03:29.944Z,989.97
2022-11-20T09:04:26.557Z,990.00
2022-11-20T09:05:25.338Z,989.99
2022-11-20T09:06:25.268Z,989.96
2022-11-20T09:07:25.850Z,990.01
2022-11-20T09:08:25.275Z,989.87
2022-11-20T09:09:25.568Z,989.91
2022-11-20T09:10:25.434Z,989.94
2022-11-20T09:11:25.267Z,989.96
2022-11-20T09:12:25.268Z,989.89
2022-11-20T09:13:25.265Z,989.91
2022-11-20T09:14:25.233Z,989.90
2022-11-20T09:15:25.223Z,989.91
2022-11-20T09:16:25.226Z,989.90
2022-11-20T09:17:25.219Z,989.92
2022-11-20T09:18:25.255Z,989.95
2022-11-20T09:19:41.067Z,989.95
2022-11-20T09:20:26.182Z,989.96
2022-11-20T09:21:25.216Z,989.93
2022-11-20T09:22:25.236Z,989.94
2022-11-20T09:23:25.186Z,989.99
2022-11-20T09:24:25.160Z,990.00
2022-11-20T09:25:25.220Z,989.94
2022-11-20T09:26:25.145Z,990.00
2022-11-20T09:27:25.155Z,990.00
2022-11-20T09:28:25.142Z,989.97
2022-11-20T09:29:25.154Z,990.03
2022-11-20T09:30:25.129Z,990.06
2022-11-20T09:31:25.142Z,990.05
2022-11-20T09:32:25.105Z,990.01
2022-11-20T09:33:25.284Z,989.99
2022-11-20T09:34:25.106Z,990.05
2022-11-20T09:35:25.102Z,990.07
2022-11-20T09:36:25.109Z,990.08
2022-11-20T09:37:25.079Z,990.05
2022-11-20T09:38:25.096Z,990.04
2022-11-20T09:39:25.116Z,990.08
2022-11-20T09:40:25.055Z,990.09
2022-11-20T09:41:25.062Z,990.03
2022-11-20T09:42:25.033Z,990.04
2022-11-20T09:43:25.035Z,990.09
2022-11-20T09:44:25.039Z,990.08
2022-11-20T09:45:26.594Z,990.08
2022-11-20T09:46:25.022Z,990.05
2022-11-20T09:47:25.039Z,990.06
2022-11-20T09:48:25.007Z,990.06
2022-11-20T09:49:30.704Z,990.05
2022-11-20T09:50:26.108Z,990.07
2022-11-20T09:51:24.992Z,990.03
2022-11-20T09:52:24.982Z,990.06
2022-11-20T09:53:24.991Z,990.01
2022-11-20T09:54:25.027Z,990.04
2022-11-20T09:55:24.958Z,990.05
2022-11-20T09:56:24.947Z,990.06
2022-11-20T09:57:24.966Z,990.04
2022-11-20T09:58:24.936Z,989.95
2022-11-20T09:59:25.742Z,990.01
2022-11-20T10:00:24.914Z,990.01
2022-11-20T10:01:25.196Z,989.95
2022-11-20T10:02:24.923Z,989.99
2022-11-20T10:03:24.912Z,989.95
2022-11-20T10:04:24.896Z,989.99
2022-11-20T10:05:24.882Z,989.95
2022-11-20T10:06:24.884Z,989.97
2022-11-20T10:07:33.097Z,989.96
2022-11-20T10:08:25.856Z,989.97
2022-11-20T10:09:25.021Z,989.95
2022-11-20T10:10:24.859Z,989.99
2022-11-20T10:11:24.860Z,990.02
2022-11-20T10:12:24.876Z,989.94
2022-11-20T10:13:24.850Z,989.90
2022-11-20T10:14:24.811Z,989.93
2022-11-20T10:15:24.818Z,989.88
2022-11-20T10:16:24.810Z,989.92
2022-11-20T10:17:24.802Z,989.92
2022-11-20T10:18:24.825Z,989.90
2022-11-20T10:19:24.885Z,989.89
2022-11-20T10:20:24.771Z,989.90
2022-11-20T10:21:24.795Z,989.89
2022-11-20T10:22:24.765Z,989.85
2022-11-20T10:23:26.104Z,989.87
2022-11-20T10:24:24.770Z,989.75
2022-11-20T10:25:24.788Z,989.83
2022-11-20T10:26:24.739Z,989.84
2022-11-20T10:27:24.731Z,989.82
2022-11-20T10:28:24.744Z,989.85
2022-11-20T10:29:25.003Z,989.85
2022-11-20T10:30:24.766Z,989.83
2022-11-20T10:31:24.753Z,989.88
2022-11-20T10:32:24.714Z,989.85
2022-11-20T10:33:27.109Z,989.84
2022-11-20T10:34:24.674Z,989.90
2022-11-20T10:35:24.682Z,989.82
2022-11-20T10:36:24.675Z,989.88
2022-11-20T10:37:24.679Z,989.85
2022-11-20T10:38:24.670Z,989.76
2022-11-20T10:39:25.109Z,989.81
2022-11-20T10:40:24.653Z,989.68
2022-11-20T10:41:24.621Z,989.72
2022-11-20T10:42:24.699Z,989.74
2022-11-20T10:43:24.621Z,989.68
2022-11-20T10:44:24.612Z,989.67
2022-11-20T10:45:24.612Z,989.70
2022-11-20T10:46:24.608Z,989.59
2022-11-20T10:47:24.594Z,989.58
2022-11-20T10:48:24.592Z,989.63
2022-11-20T10:49:25.258Z,989.61
2022-11-20T10:50:24.572Z,989.57
2022-11-20T10:51:25.024Z,989.55
2022-11-20T10:52:24.571Z,989.53
2022-11-20T10:53:24.558Z,989.49
2022-11-20T10:54:24.561Z,989.40
2022-11-20T10:55:24.542Z,989.46
2022-11-20T10:56:24.979Z,989.39
2022-11-20T10:57:24.528Z,989.37
2022-11-20T10:58:27.097Z,989.37
2022-11-20T10:59:24.804Z,989.33
2022-11-20T11:00:24.548Z,989.31
2022-11-20T11:01:24.704Z,989.39
2022-11-20T11:02:24.493Z,989.42
2022-11-20T11:03:24.489Z,989.40
2022-11-20T11:04:24.519Z,989.45
2022-11-20T11:05:24.496Z,989.41
2022-11-20T11:06:24.836Z,989.41
2022-11-20T11:07:24.536Z,989.34
2022-11-20T11:08:24.468Z,989.37
2022-11-20T11:09:24.710Z,989.34
2022-11-20T11:10:24.434Z,989.36
2022-11-20T11:11:24.572Z,989.28
2022-11-20T11:12:24.433Z,989.33
2022-11-20T11:13:24.413Z,989.31
2022-11-20T11:14:24.406Z,989.32
2022-11-20T11:15:24.419Z,989.30
2022-11-20T11:16:24.832Z,989.25
2022-11-20T11:17:24.395Z,989.28
2022-11-20T11:18:24.462Z,989.24
2022-11-20T11:19:24.702Z,989.24
2022-11-20T11:20:24.370Z,989.20
2022-11-20T11:21:24.554Z,989.23
2022-11-20T11:22:24.346Z,989.23
2022-11-20T11:23:24.434Z,989.23
2022-11-20T11:24:41.545Z,989.27
2022-11-20T11:25:25.356Z,989.24
2022-11-20T11:26:24.350Z,989.29
2022-11-20T11:27:24.400Z,989.27
2022-11-20T11:28:24.351Z,989.24
2022-11-20T11:29:24.714Z,989.22
2022-11-20T11:30:24.313Z,989.16
2022-11-20T11:31:24.298Z,989.10
2022-11-20T11:32:24.312Z,989.06
2022-11-20T11:33:24.321Z,989.11
2022-11-20T11:34:24.287Z,989.12
2022-11-20T11:35:24.272Z,989.01
2022-11-20T11:36:24.261Z,989.06
2022-11-20T11:37:24.269Z,989.10
2022-11-20T11:38:24.268Z,989.08
2022-11-20T11:39:24.760Z,989.06
2022-11-20T11:40:25.241Z,989.03
2022-11-20T11:41:24.226Z,989.07
2022-11-20T11:42:24.221Z,989.03
2022-11-20T11:43:24.239Z,989.03
2022-11-20T11:44:24.641Z,989.01
2022-11-20T11:45:24.225Z,989.07
2022-11-20T11:46:24.197Z,989.02
2022-11-20T11:47:24.199Z,989.07
2022-11-20T11:48:24.185Z,989.08
2022-11-20T11:49:25.582Z,989.06
2022-11-20T11:50:24.179Z,989.03
2022-11-20T11:51:24.181Z,989.00
2022-11-20T11:52:24.155Z,989.02
2022-11-20T11:53:24.201Z,989.08
2022-11-20T11:54:24.169Z,989.08
2022-11-20T11:55:24.670Z,988.95
2022-11-20T11:56:24.133Z,988.99
2022-11-20T11:57:24.123Z,988.92
2022-11-20T11:58:24.129Z,988.89
2022-11-20T11:59:24.484Z,988.83
2022-11-20T12:00:24.184Z,988.84
2022-11-20T12:01:24.155Z,988.79
2022-11-20T12:02:24.170Z,988.82
2022-11-20T12:03:24.103Z,988.79
2022-11-20T12:04:24.073Z,988.82
2022-11-20T12:05:24.103Z,988.82
2022-11-20T12:06:24.069Z,988.82
2022-11-20T12:07:45.612Z,988.79
2022-11-20T12:08:25.146Z,988.83
2022-11-20T12:09:24.378Z,988.86
2022-11-20T12:10:24.893Z,988.85
2022-11-20T12:11:24.047Z,988.83
2022-11-20T12:12:24.023Z,988.83
2022-11-20T12:13:24.047Z,988.77
2022-11-20T12:14:24.044Z,988.76
2022-11-20T12:15:24.068Z,988.78
2022-11-20T12:16:24.014Z,988.73
2022-11-20T12:17:24.010Z,988.77
2022-11-20T12:18:23.998Z,988.74
2022-11-20T12:19:24.268Z,988.77
2022-11-20T12:20:24.029Z,988.79
2022-11-20T12:21:23.979Z,988.79
2022-11-20T12:22:24.104Z,988.73
2022-11-20T12:23:23.977Z,988.76
2022-11-20T12:24:23.937Z,988.72
2022-11-20T12:25:24.560Z,988.73
2022-11-20T12:26:23.949Z,988.72
2022-11-20T12:27:23.942Z,988.69
2022-11-20T12:28:23.963Z,988.69